sensor_id;sensor_type;location;lat;lon;timestamp;P1;durP1;ratioP1;P2;durP2;ratioP2
70270;SDS011;57680;54.292;18.598;2024-02-23T00:01:28;20.83;;;9.43;;
70270;SDS011;57680;54.292;18.598;2024-02-23T00:03:53;22.98;;;10.05;;
70270;SDS011;57680;54.292;18.598;2024-02-23T00:06:18;21.17;;;10.17;;
70270;SDS011;57680;54.292;18.598;2024-02-23T00:08:44;21.67;;;10.50;;
70270;SDS011;57680;54.292;18.598;2024-02-23T00:11:09;23.47;;;10.23;;
70270;SDS011;57680;54.292;18.598;2024-02-23T00:13:34;18.57;;;9.30;;
70270;SDS011;57680;54.292;18.598;2024-02-23T00:16:00;22.35;;;9.90;;
70270;SDS011;57680;54.292;18.598;2024-02-23T00:18:25;20.07;;;9.30;;
70270;SDS011;57680;54.292;18.598;2024-02-23T00:20:51;21.97;;;9.63;;
70270;SDS011;57680;54.292;18.598;2024-02-23T00:23:16;22.23;;;9.77;;
70270;SDS011;57680;54.292;18.598;2024-02-23T00:25:41;21.67;;;9.97;;
70270;SDS011;57680;54.292;18.598;2024-02-23T00:28:07;19.83;;;9.57;;
70270;SDS011;57680;54.292;18.598;2024-02-23T00:30:32;23.65;;;10.40;;
70270;SDS011;57680;54.292;18.598;2024-02-23T00:32:58;22.43;;;9.57;;
70270;SDS011;57680;54.292;18.598;2024-02-23T00:35:23;20.63;;;10.00;;
70270;SDS011;57680;54.292;18.598;2024-02-23T00:37:48;20.07;;;9.57;;
70270;SDS011;57680;54.292;18.598;2024-02-23T00:40:14;19.57;;;9.67;;
70270;SDS011;57680;54.292;18.598;2024-02-23T00:42:39;24.30;;;10.18;;
70270;SDS011;57680;54.292;18.598;2024-02-23T00:45:05;20.80;;;9.47;;
70270;SDS011;57680;54.292;18.598;2024-02-23T00:47:31;21.73;;;9.77;;
70270;SDS011;57680;54.292;18.598;2024-02-23T00:49:56;19.70;;;9.50;;
70270;SDS011;57680;54.292;18.598;2024-02-23T00:52:21;21.70;;;9.67;;
70270;SDS011;57680;54.292;18.598;2024-02-23T00:54:46;21.87;;;9.83;;
70270;SDS011;57680;54.292;18.598;2024-02-23T00:57:12;18.93;;;9.17;;
70270;SDS011;57680;54.292;18.598;2024-02-23T00:59:37;19.60;;;9.50;;
70270;SDS011;57680;54.292;18.598;2024-02-23T01:02:03;20.40;;;9.65;;
70270;SDS011;57680;54.292;18.598;2024-02-23T01:04:28;19.40;;;9.30;;
70270;SDS011;57680;54.292;18.598;2024-02-23T01:06:53;19.73;;;9.13;;
70270;SDS011;57680;54.292;18.598;2024-02-23T01:09:18;20.33;;;9.37;;
70270;SDS011;57680;54.292;18.598;2024-02-23T01:11:44;21.37;;;9.43;;
70270;SDS011;57680;54.292;18.598;2024-02-23T01:14:09;19.73;;;9.73;;
70270;SDS011;57680;54.292;18.598;2024-02-23T01:16:34;20.53;;;9.70;;
70270;SDS011;57680;54.292;18.598;2024-02-23T01:19:00;20.60;;;9.10;;
70270;SDS011;57680;54.292;18.598;2024-02-23T01:21:25;18.90;;;9.30;;
70270;SDS011;57680;54.292;18.598;2024-02-23T01:23:50;20.67;;;9.37;;
70270;SDS011;57680;54.292;18.598;2024-02-23T01:26:15;19.58;;;9.10;;
70270;SDS011;57680;54.292;18.598;2024-02-23T01:28:41;18.50;;;8.80;;
70270;SDS011;57680;54.292;18.598;2024-02-23T01:31:09;19.97;;;9.17;;
70270;SDS011;57680;54.292;18.598;2024-02-23T01:33:36;21.42;;;9.00;;
70270;SDS011;57680;54.292;18.598;2024-02-23T01:36:02;19.43;;;8.70;;
70270;SDS011;57680;54.292;18.598;2024-02-23T01:38:27;19.60;;;9.65;;
70270;SDS011;57680;54.292;18.598;2024-02-23T01:40:52;22.27;;;9.43;;
70270;SDS011;57680;54.292;18.598;2024-02-23T01:43:18;20.97;;;9.20;;
70270;SDS011;57680;54.292;18.598;2024-02-23T01:45:43;23.13;;;9.80;;
70270;SDS011;57680;54.292;18.598;2024-02-23T01:48:08;23.40;;;9.87;;
70270;SDS011;57680;54.292;18.598;2024-02-23T01:50:34;19.77;;;9.27;;
70270;SDS011;57680;54.292;18.598;2024-02-23T01:53:00;21.80;;;10.32;;
70270;SDS011;57680;54.292;18.598;2024-02-23T01:55:27;20.63;;;10.10;;
70270;SDS011;57680;54.292;18.598;2024-02-23T01:57:53;21.25;;;9.10;;
70270;SDS011;57680;54.292;18.598;2024-02-23T02:00:19;23.13;;;9.50;;
70270;SDS011;57680;54.292;18.598;2024-02-23T02:02:45;22.88;;;9.80;;
70270;SDS011;57680;54.292;18.598;2024-02-23T02:05:12;23.17;;;9.73;;
70270;SDS011;57680;54.292;18.598;2024-02-23T02:07:38;20.08;;;9.48;;
70270;SDS011;57680;54.292;18.598;2024-02-23T02:10:06;22.42;;;10.13;;
70270;SDS011;57680;54.292;18.598;2024-02-23T02:12:34;21.30;;;9.37;;
70270;SDS011;57680;54.292;18.598;2024-02-23T02:14:59;24.83;;;9.90;;
70270;SDS011;57680;54.292;18.598;2024-02-23T02:17:24;20.03;;;9.23;;
70270;SDS011;57680;54.292;18.598;2024-02-23T02:19:50;22.27;;;9.00;;
70270;SDS011;57680;54.292;18.598;2024-02-23T02:22:15;19.00;;;9.40;;
70270;SDS011;57680;54.292;18.598;2024-02-23T02:24:40;20.80;;;9.37;;
70270;SDS011;57680;54.292;18.598;2024-02-23T02:27:05;21.50;;;9.90;;
70270;SDS011;57680;54.292;18.598;2024-02-23T02:29:31;20.73;;;9.17;;
70270;SDS011;57680;54.292;18.598;2024-02-23T02:31:56;21.77;;;9.15;;
70270;SDS011;57680;54.292;18.598;2024-02-23T02:34:22;21.80;;;9.40;;
70270;SDS011;57680;54.292;18.598;2024-02-23T02:36:47;21.60;;;9.20;;
70270;SDS011;57680;54.292;18.598;2024-02-23T02:39:12;22.33;;;10.30;;
70270;SDS011;57680;54.292;18.598;2024-02-23T02:41:37;19.27;;;9.37;;
70270;SDS011;57680;54.292;18.598;2024-02-23T02:44:03;25.47;;;10.60;;
70270;SDS011;57680;54.292;18.598;2024-02-23T02:46:28;21.63;;;9.43;;
70270;SDS011;57680;54.292;18.598;2024-02-23T02:48:53;23.23;;;10.10;;
70270;SDS011;57680;54.292;18.598;2024-02-23T02:51:19;24.20;;;10.60;;
70270;SDS011;57680;54.292;18.598;2024-02-23T02:53:44;18.98;;;9.15;;
70270;SDS011;57680;54.292;18.598;2024-02-23T02:56:09;23.30;;;10.33;;
70270;SDS011;57680;54.292;18.598;2024-02-23T02:58:35;23.87;;;10.00;;
70270;SDS011;57680;54.292;18.598;2024-02-23T03:01:00;22.30;;;10.50;;
70270;SDS011;57680;54.292;18.598;2024-02-23T03:03:25;21.67;;;9.83;;
70270;SDS011;57680;54.292;18.598;2024-02-23T03:05:51;23.47;;;10.13;;
70270;SDS011;57680;54.292;18.598;2024-02-23T03:08:16;22.50;;;9.87;;
70270;SDS011;57680;54.292;18.598;2024-02-23T03:10:41;20.80;;;9.57;;
70270;SDS011;57680;54.292;18.598;2024-02-23T03:13:07;20.90;;;9.83;;
70270;SDS011;57680;54.292;18.598;2024-02-23T03:15:32;23.77;;;9.93;;
70270;SDS011;57680;54.292;18.598;2024-02-23T03:17:57;23.03;;;10.70;;
70270;SDS011;57680;54.292;18.598;2024-02-23T03:20:22;23.63;;;9.90;;
70270;SDS011;57680;54.292;18.598;2024-02-23T03:22:48;21.80;;;10.10;;
70270;SDS011;57680;54.292;18.598;2024-02-23T03:25:13;24.67;;;10.53;;
70270;SDS011;57680;54.292;18.598;2024-02-23T03:27:39;23.48;;;9.95;;
70270;SDS011;57680;54.292;18.598;2024-02-23T03:30:04;22.93;;;10.57;;
70270;SDS011;57680;54.292;18.598;2024-02-23T03:32:30;22.45;;;9.70;;
70270;SDS011;57680;54.292;18.598;2024-02-23T03:34:56;21.27;;;11.10;;
70270;SDS011;57680;54.292;18.598;2024-02-23T03:37:21;23.97;;;10.83;;
70270;SDS011;57680;54.292;18.598;2024-02-23T03:39:47;22.37;;;11.07;;
70270;SDS011;57680;54.292;18.598;2024-02-23T03:42:12;22.43;;;10.27;;
70270;SDS011;57680;54.292;18.598;2024-02-23T03:44:37;22.63;;;10.17;;
70270;SDS011;57680;54.292;18.598;2024-02-23T03:47:03;22.90;;;10.37;;
70270;SDS011;57680;54.292;18.598;2024-02-23T03:49:28;23.77;;;10.23;;
70270;SDS011;57680;54.292;18.598;2024-02-23T03:51:53;23.27;;;9.80;;
70270;SDS011;57680;54.292;18.598;2024-02-23T03:54:19;21.47;;;9.77;;
70270;SDS011;57680;54.292;18.598;2024-02-23T03:56:44;19.57;;;9.47;;
70270;SDS011;57680;54.292;18.598;2024-02-23T03:59:09;20.37;;;9.70;;
70270;SDS011;57680;54.292;18.598;2024-02-23T04:01:36;23.93;;;10.57;;
70270;SDS011;57680;54.292;18.598;2024-02-23T04:04:02;22.40;;;10.15;;
70270;SDS011;57680;54.292;18.598;2024-02-23T04:06:27;21.63;;;10.07;;
70270;SDS011;57680;54.292;18.598;2024-02-23T04:08:53;21.35;;;9.70;;
70270;SDS011;57680;54.292;18.598;2024-02-23T04:11:18;25.10;;;11.07;;
70270;SDS011;57680;54.292;18.598;2024-02-23T04:13:43;22.20;;;9.77;;
70270;SDS011;57680;54.292;18.598;2024-02-23T04:16:09;21.93;;;10.10;;
70270;SDS011;57680;54.292;18.598;2024-02-23T04:18:34;25.13;;;10.70;;
70270;SDS011;57680;54.292;18.598;2024-02-23T04:20:59;20.30;;;10.23;;
70270;SDS011;57680;54.292;18.598;2024-02-23T04:23:25;22.30;;;10.40;;
70270;SDS011;57680;54.292;18.598;2024-02-23T04:25:50;21.50;;;10.17;;
70270;SDS011;57680;54.292;18.598;2024-02-23T04:28:15;21.03;;;10.00;;
70270;SDS011;57680;54.292;18.598;2024-02-23T04:30:40;21.67;;;10.17;;
70270;SDS011;57680;54.292;18.598;2024-02-23T04:33:06;21.05;;;10.20;;
70270;SDS011;57680;54.292;18.598;2024-02-23T04:35:31;20.50;;;10.47;;
70270;SDS011;57680;54.292;18.598;2024-02-23T04:37:56;20.23;;;9.50;;
70270;SDS011;57680;54.292;18.598;2024-02-23T04:40:22;21.67;;;10.17;;
70270;SDS011;57680;54.292;18.598;2024-02-23T04:42:47;20.60;;;10.20;;
70270;SDS011;57680;54.292;18.598;2024-02-23T04:45:12;20.07;;;9.93;;
70270;SDS011;57680;54.292;18.598;2024-02-23T04:47:37;22.77;;;9.83;;
70270;SDS011;57680;54.292;18.598;2024-02-23T04:50:03;19.93;;;9.73;;
70270;SDS011;57680;54.292;18.598;2024-02-23T04:52:29;21.95;;;10.63;;
70270;SDS011;57680;54.292;18.598;2024-02-23T04:54:54;22.03;;;10.17;;
70270;SDS011;57680;54.292;18.598;2024-02-23T04:57:19;20.10;;;9.90;;
70270;SDS011;57680;54.292;18.598;2024-02-23T04:59:45;21.40;;;9.82;;
70270;SDS011;57680;54.292;18.598;2024-02-23T05:02:10;22.37;;;10.40;;
70270;SDS011;57680;54.292;18.598;2024-02-23T05:04:35;19.70;;;9.73;;
70270;SDS011;57680;54.292;18.598;2024-02-23T05:07:01;22.93;;;10.93;;
70270;SDS011;57680;54.292;18.598;2024-02-23T05:09:26;23.03;;;10.27;;
70270;SDS011;57680;54.292;18.598;2024-02-23T05:11:51;18.33;;;9.03;;
70270;SDS011;57680;54.292;18.598;2024-02-23T05:14:16;21.30;;;9.80;;
70270;SDS011;57680;54.292;18.598;2024-02-23T05:16:42;22.30;;;10.40;;
70270;SDS011;57680;54.292;18.598;2024-02-23T05:19:07;18.73;;;9.13;;
70270;SDS011;57680;54.292;18.598;2024-02-23T05:21:32;23.60;;;10.23;;
70270;SDS011;57680;54.292;18.598;2024-02-23T05:23:58;20.13;;;9.47;;
70270;SDS011;57680;54.292;18.598;2024-02-23T05:26:23;18.97;;;9.03;;
70270;SDS011;57680;54.292;18.598;2024-02-23T05:28:48;20.00;;;9.10;;
70270;SDS011;57680;54.292;18.598;2024-02-23T05:31:14;20.53;;;9.07;;
70270;SDS011;57680;54.292;18.598;2024-02-23T05:33:39;19.17;;;9.13;;
70270;SDS011;57680;54.292;18.598;2024-02-23T05:36:04;18.97;;;9.03;;
70270;SDS011;57680;54.292;18.598;2024-02-23T05:38:30;17.30;;;8.27;;
70270;SDS011;57680;54.292;18.598;2024-02-23T05:40:55;17.90;;;8.63;;
70270;SDS011;57680;54.292;18.598;2024-02-23T05:43:20;17.67;;;8.57;;
70270;SDS011;57680;54.292;18.598;2024-02-23T05:45:46;18.63;;;8.50;;
70270;SDS011;57680;54.292;18.598;2024-02-23T05:48:11;16.27;;;8.23;;
70270;SDS011;57680;54.292;18.598;2024-02-23T05:50:36;16.57;;;8.57;;
70270;SDS011;57680;54.292;18.598;2024-02-23T05:53:02;17.40;;;8.30;;
70270;SDS011;57680;54.292;18.598;2024-02-23T05:55:27;16.20;;;7.60;;
70270;SDS011;57680;54.292;18.598;2024-02-23T05:57:52;16.93;;;7.83;;
70270;SDS011;57680;54.292;18.598;2024-02-23T06:00:18;16.53;;;8.17;;
70270;SDS011;57680;54.292;18.598;2024-02-23T06:02:43;15.93;;;7.47;;
70270;SDS011;57680;54.292;18.598;2024-02-23T06:05:08;15.10;;;7.57;;
70270;SDS011;57680;54.292;18.598;2024-02-23T06:07:34;16.42;;;7.20;;
70270;SDS011;57680;54.292;18.598;2024-02-23T06:09:59;16.37;;;7.13;;
70270;SDS011;57680;54.292;18.598;2024-02-23T06:12:24;15.53;;;7.50;;
70270;SDS011;57680;54.292;18.598;2024-02-23T06:14:50;14.73;;;7.10;;
70270;SDS011;57680;54.292;18.598;2024-02-23T06:17:16;15.30;;;7.07;;
70270;SDS011;57680;54.292;18.598;2024-02-23T06:19:41;13.73;;;6.97;;
70270;SDS011;57680;54.292;18.598;2024-02-23T06:22:06;12.30;;;6.23;;
70270;SDS011;57680;54.292;18.598;2024-02-23T06:24:32;14.63;;;6.43;;
70270;SDS011;57680;54.292;18.598;2024-02-23T06:26:58;13.07;;;6.10;;
70270;SDS011;57680;54.292;18.598;2024-02-23T06:29:23;13.63;;;6.05;;
70270;SDS011;57680;54.292;18.598;2024-02-23T06:31:48;13.27;;;6.37;;
70270;SDS011;57680;54.292;18.598;2024-02-23T06:34:14;12.10;;;6.13;;
70270;SDS011;57680;54.292;18.598;2024-02-23T06:36:39;12.32;;;6.18;;
70270;SDS011;57680;54.292;18.598;2024-02-23T06:39:05;13.50;;;6.30;;
70270;SDS011;57680;54.292;18.598;2024-02-23T06:41:30;12.13;;;5.90;;
70270;SDS011;57680;54.292;18.598;2024-02-23T06:43:55;13.47;;;5.67;;
70270;SDS011;57680;54.292;18.598;2024-02-23T06:46:21;12.15;;;5.88;;
70270;SDS011;57680;54.292;18.598;2024-02-23T06:48:46;13.33;;;6.03;;
70270;SDS011;57680;54.292;18.598;2024-02-23T06:51:12;13.10;;;5.43;;
70270;SDS011;57680;54.292;18.598;2024-02-23T06:53:37;13.80;;;6.00;;
70270;SDS011;57680;54.292;18.598;2024-02-23T06:56:02;11.93;;;5.63;;
70270;SDS011;57680;54.292;18.598;2024-02-23T06:58:28;11.47;;;5.40;;
70270;SDS011;57680;54.292;18.598;2024-02-23T07:00:53;11.57;;;5.10;;
70270;SDS011;57680;54.292;18.598;2024-02-23T07:03:19;11.33;;;5.37;;
70270;SDS011;57680;54.292;18.598;2024-02-23T07:05:44;10.63;;;5.10;;
70270;SDS011;57680;54.292;18.598;2024-02-23T07:08:09;10.20;;;4.60;;
70270;SDS011;57680;54.292;18.598;2024-02-23T07:10:35;10.03;;;4.40;;
70270;SDS011;57680;54.292;18.598;2024-02-23T07:13:01;9.73;;;4.28;;
70270;SDS011;57680;54.292;18.598;2024-02-23T07:15:26;8.37;;;4.10;;
70270;SDS011;57680;54.292;18.598;2024-02-23T07:17:51;9.93;;;3.83;;
70270;SDS011;57680;54.292;18.598;2024-02-23T07:20:17;6.78;;;3.30;;
70270;SDS011;57680;54.292;18.598;2024-02-23T07:22:43;7.07;;;3.20;;
70270;SDS011;57680;54.292;18.598;2024-02-23T07:25:09;7.55;;;3.55;;
70270;SDS011;57680;54.292;18.598;2024-02-23T07:27:34;6.27;;;2.80;;
70270;SDS011;57680;54.292;18.598;2024-02-23T07:30:00;7.20;;;3.00;;
70270;SDS011;57680;54.292;18.598;2024-02-23T07:32:25;7.60;;;2.73;;
70270;SDS011;57680;54.292;18.598;2024-02-23T07:34:50;7.70;;;2.93;;
70270;SDS011;57680;54.292;18.598;2024-02-23T07:37:16;6.20;;;2.93;;
70270;SDS011;57680;54.292;18.598;2024-02-23T07:39:41;7.03;;;2.87;;
70270;SDS011;57680;54.292;18.598;2024-02-23T07:42:06;6.47;;;2.73;;
70270;SDS011;57680;54.292;18.598;2024-02-23T07:44:32;5.17;;;2.27;;
70270;SDS011;57680;54.292;18.598;2024-02-23T07:46:57;6.57;;;2.43;;
70270;SDS011;57680;54.292;18.598;2024-02-23T07:49:22;6.25;;;2.72;;
70270;SDS011;57680;54.292;18.598;2024-02-23T07:51:48;7.07;;;3.10;;
70270;SDS011;57680;54.292;18.598;2024-02-23T07:54:13;5.30;;;2.43;;
70270;SDS011;57680;54.292;18.598;2024-02-23T07:56:38;6.17;;;2.73;;
70270;SDS011;57680;54.292;18.598;2024-02-23T07:59:04;6.17;;;2.40;;
70270;SDS011;57680;54.292;18.598;2024-02-23T08:01:29;7.00;;;2.40;;
70270;SDS011;57680;54.292;18.598;2024-02-23T08:03:55;6.93;;;2.60;;
70270;SDS011;57680;54.292;18.598;2024-02-23T08:06:21;5.57;;;2.20;;
70270;SDS011;57680;54.292;18.598;2024-02-23T08:08:46;5.87;;;2.07;;
70270;SDS011;57680;54.292;18.598;2024-02-23T08:11:12;5.40;;;2.00;;
70270;SDS011;57680;54.292;18.598;2024-02-23T08:13:37;5.47;;;1.60;;
70270;SDS011;57680;54.292;18.598;2024-02-23T08:16:02;4.77;;;1.70;;
70270;SDS011;57680;54.292;18.598;2024-02-23T08:18:28;4.27;;;1.70;;
70270;SDS011;57680;54.292;18.598;2024-02-23T08:20:53;8.40;;;1.60;;
70270;SDS011;57680;54.292;18.598;2024-02-23T08:23:19;4.77;;;1.40;;
70270;SDS011;57680;54.292;18.598;2024-02-23T08:25:44;3.83;;;1.53;;
70270;SDS011;57680;54.292;18.598;2024-02-23T08:28:09;3.97;;;1.50;;
70270;SDS011;57680;54.292;18.598;2024-02-23T08:30:35;2.80;;;1.10;;
70270;SDS011;57680;54.292;18.598;2024-02-23T08:33:00;3.87;;;1.30;;
70270;SDS011;57680;54.292;18.598;2024-02-23T08:35:26;3.73;;;1.30;;
70270;SDS011;57680;54.292;18.598;2024-02-23T08:37:51;2.63;;;1.00;;
70270;SDS011;57680;54.292;18.598;2024-02-23T08:40:16;3.20;;;1.20;;
70270;SDS011;57680;54.292;18.598;2024-02-23T08:42:42;5.90;;;1.10;;
70270;SDS011;57680;54.292;18.598;2024-02-23T08:45:07;2.63;;;0.90;;
70270;SDS011;57680;54.292;18.598;2024-02-23T08:47:33;2.73;;;0.80;;
70270;SDS011;57680;54.292;18.598;2024-02-23T08:49:58;3.67;;;0.80;;
70270;SDS011;57680;54.292;18.598;2024-02-23T08:52:24;2.72;;;0.70;;
70270;SDS011;57680;54.292;18.598;2024-02-23T08:54:50;3.17;;;0.80;;
70270;SDS011;57680;54.292;18.598;2024-02-23T08:57:16;2.40;;;0.60;;
70270;SDS011;57680;54.292;18.598;2024-02-23T08:59:41;3.60;;;0.60;;
70270;SDS011;57680;54.292;18.598;2024-02-23T09:02:07;2.28;;;0.50;;
70270;SDS011;57680;54.292;18.598;2024-02-23T09:04:33;3.17;;;0.75;;
70270;SDS011;57680;54.292;18.598;2024-02-23T09:06:59;2.00;;;0.67;;
70270;SDS011;57680;54.292;18.598;2024-02-23T09:09:24;2.63;;;0.60;;
70270;SDS011;57680;54.292;18.598;2024-02-23T09:11:49;3.67;;;0.97;;
70270;SDS011;57680;54.292;18.598;2024-02-23T09:14:15;4.27;;;0.80;;
70270;SDS011;57680;54.292;18.598;2024-02-23T09:16:41;4.82;;;0.80;;
70270;SDS011;57680;54.292;18.598;2024-02-23T09:19:06;4.50;;;0.73;;
70270;SDS011;57680;54.292;18.598;2024-02-23T09:21:31;1.70;;;0.53;;
70270;SDS011;57680;54.292;18.598;2024-02-23T09:23:56;3.23;;;0.70;;
70270;SDS011;57680;54.292;18.598;2024-02-23T09:26:22;2.78;;;0.95;;
70270;SDS011;57680;54.292;18.598;2024-02-23T09:28:47;2.60;;;0.60;;
70270;SDS011;57680;54.292;18.598;2024-02-23T09:31:13;2.87;;;0.90;;
70270;SDS011;57680;54.292;18.598;2024-02-23T09:33:38;5.80;;;0.70;;
70270;SDS011;57680;54.292;18.598;2024-02-23T09:36:03;2.57;;;0.70;;
70270;SDS011;57680;54.292;18.598;2024-02-23T09:38:29;2.05;;;0.60;;
70270;SDS011;57680;54.292;18.598;2024-02-23T09:40:54;2.13;;;0.70;;
70270;SDS011;57680;54.292;18.598;2024-02-23T09:43:20;2.57;;;0.60;;
70270;SDS011;57680;54.292;18.598;2024-02-23T09:45:46;2.28;;;0.50;;
70270;SDS011;57680;54.292;18.598;2024-02-23T09:48:12;2.77;;;0.50;;
70270;SDS011;57680;54.292;18.598;2024-02-23T09:50:41;1.42;;;0.47;;
70270;SDS011;57680;54.292;18.598;2024-02-23T09:53:06;2.67;;;0.67;;
70270;SDS011;57680;54.292;18.598;2024-02-23T09:55:32;1.77;;;0.40;;
70270;SDS011;57680;54.292;18.598;2024-02-23T09:57:58;1.70;;;0.40;;
70270;SDS011;57680;54.292;18.598;2024-02-23T10:00:24;2.63;;;0.40;;
70270;SDS011;57680;54.292;18.598;2024-02-23T10:02:49;2.03;;;0.47;;
70270;SDS011;57680;54.292;18.598;2024-02-23T10:05:15;1.80;;;0.50;;
70270;SDS011;57680;54.292;18.598;2024-02-23T10:07:42;2.45;;;0.60;;
70270;SDS011;57680;54.292;18.598;2024-02-23T10:10:08;2.08;;;0.40;;
70270;SDS011;57680;54.292;18.598;2024-02-23T10:12:34;1.10;;;0.50;;
70270;SDS011;57680;54.292;18.598;2024-02-23T10:14:59;1.77;;;0.50;;
70270;SDS011;57680;54.292;18.598;2024-02-23T10:17:25;2.65;;;0.50;;
70270;SDS011;57680;54.292;18.598;2024-02-23T10:19:50;2.43;;;0.50;;
70270;SDS011;57680;54.292;18.598;2024-02-23T10:22:16;1.50;;;0.40;;
70270;SDS011;57680;54.292;18.598;2024-02-23T10:24:42;2.03;;;0.47;;
70270;SDS011;57680;54.292;18.598;2024-02-23T10:27:07;2.38;;;0.60;;
70270;SDS011;57680;54.292;18.598;2024-02-23T10:29:33;1.57;;;0.40;;
70270;SDS011;57680;54.292;18.598;2024-02-23T10:31:58;3.93;;;0.67;;
70270;SDS011;57680;54.292;18.598;2024-02-23T10:34:25;1.60;;;0.47;;
70270;SDS011;57680;54.292;18.598;2024-02-23T10:36:52;2.20;;;0.50;;
70270;SDS011;57680;54.292;18.598;2024-02-23T10:39:18;1.50;;;0.50;;
70270;SDS011;57680;54.292;18.598;2024-02-23T10:41:47;1.97;;;0.60;;
70270;SDS011;57680;54.292;18.598;2024-02-23T10:44:18;3.85;;;0.60;;
70270;SDS011;57680;54.292;18.598;2024-02-23T10:46:44;2.43;;;0.57;;
70270;SDS011;57680;54.292;18.598;2024-02-23T10:49:11;2.75;;;0.63;;
70270;SDS011;57680;54.292;18.598;2024-02-23T10:51:38;2.35;;;0.55;;
70270;SDS011;57680;54.292;18.598;2024-02-23T10:54:04;2.50;;;0.60;;
70270;SDS011;57680;54.292;18.598;2024-02-23T10:56:31;2.90;;;0.70;;
70270;SDS011;57680;54.292;18.598;2024-02-23T10:58:56;1.47;;;0.57;;
70270;SDS011;57680;54.292;18.598;2024-02-23T11:01:22;1.70;;;0.50;;
70270;SDS011;57680;54.292;18.598;2024-02-23T11:03:49;4.75;;;0.60;;
70270;SDS011;57680;54.292;18.598;2024-02-23T11:06:14;2.27;;;0.40;;
70270;SDS011;57680;54.292;18.598;2024-02-23T11:08:40;3.17;;;0.70;;
70270;SDS011;57680;54.292;18.598;2024-02-23T11:11:09;2.20;;;0.40;;
70270;SDS011;57680;54.292;18.598;2024-02-23T11:13:36;1.40;;;0.52;;
70270;SDS011;57680;54.292;18.598;2024-02-23T11:16:06;1.83;;;0.50;;
70270;SDS011;57680;54.292;18.598;2024-02-23T11:18:36;2.20;;;0.70;;
70270;SDS011;57680;54.292;18.598;2024-02-23T11:21:03;2.57;;;0.60;;
70270;SDS011;57680;54.292;18.598;2024-02-23T11:23:43;1.15;;;0.40;;
70270;SDS011;57680;54.292;18.598;2024-02-23T11:26:18;3.42;;;0.50;;
70270;SDS011;57680;54.292;18.598;2024-02-23T11:28:47;3.20;;;0.83;;
70270;SDS011;57680;54.292;18.598;2024-02-23T11:31:13;2.10;;;0.80;;
70270;SDS011;57680;54.292;18.598;2024-02-23T11:33:39;1.92;;;0.50;;
70270;SDS011;57680;54.292;18.598;2024-02-23T11:36:05;3.47;;;0.70;;
70270;SDS011;57680;54.292;18.598;2024-02-23T11:38:32;2.90;;;0.80;;
70270;SDS011;57680;54.292;18.598;2024-02-23T11:40:57;4.05;;;0.52;;
70270;SDS011;57680;54.292;18.598;2024-02-23T11:43:24;2.23;;;0.60;;
70270;SDS011;57680;54.292;18.598;2024-02-23T11:45:49;1.52;;;0.60;;
70270;SDS011;57680;54.292;18.598;2024-02-23T11:48:15;2.53;;;0.70;;
70270;SDS011;57680;54.292;18.598;2024-02-23T11:50:40;1.77;;;0.67;;
70270;SDS011;57680;54.292;18.598;2024-02-23T11:53:06;2.88;;;0.70;;
70270;SDS011;57680;54.292;18.598;2024-02-23T11:55:31;3.77;;;0.67;;
70270;SDS011;57680;54.292;18.598;2024-02-23T11:57:56;2.67;;;0.80;;
70270;SDS011;57680;54.292;18.598;2024-02-23T12:00:23;3.40;;;0.73;;
70270;SDS011;57680;54.292;18.598;2024-02-23T12:02:48;3.25;;;0.63;;
70270;SDS011;57680;54.292;18.598;2024-02-23T12:05:13;1.90;;;0.70;;
70270;SDS011;57680;54.292;18.598;2024-02-23T12:07:39;3.57;;;1.00;;
70270;SDS011;57680;54.292;18.598;2024-02-23T12:10:06;2.05;;;0.68;;
70270;SDS011;57680;54.292;18.598;2024-02-23T12:12:32;2.55;;;0.95;;
70270;SDS011;57680;54.292;18.598;2024-02-23T12:14:57;2.60;;;1.00;;
70270;SDS011;57680;54.292;18.598;2024-02-23T12:17:23;3.03;;;1.23;;
70270;SDS011;57680;54.292;18.598;2024-02-23T12:19:49;2.05;;;0.80;;
70270;SDS011;57680;54.292;18.598;2024-02-23T12:22:14;2.80;;;0.80;;
70270;SDS011;57680;54.292;18.598;2024-02-23T12:24:40;2.67;;;0.77;;
70270;SDS011;57680;54.292;18.598;2024-02-23T12:27:06;2.80;;;0.75;;
70270;SDS011;57680;54.292;18.598;2024-02-23T12:29:32;3.00;;;0.63;;
70270;SDS011;57680;54.292;18.598;2024-02-23T12:32:03;3.20;;;0.90;;
70270;SDS011;57680;54.292;18.598;2024-02-23T12:34:29;2.17;;;0.70;;
70270;SDS011;57680;54.292;18.598;2024-02-23T12:36:55;3.57;;;1.07;;
70270;SDS011;57680;54.292;18.598;2024-02-23T12:39:20;3.27;;;0.77;;
70270;SDS011;57680;54.292;18.598;2024-02-23T12:41:46;3.07;;;1.00;;
70270;SDS011;57680;54.292;18.598;2024-02-23T12:44:11;5.17;;;0.80;;
70270;SDS011;57680;54.292;18.598;2024-02-23T12:46:36;2.63;;;0.93;;
70270;SDS011;57680;54.292;18.598;2024-02-23T12:49:01;1.93;;;0.80;;
70270;SDS011;57680;54.292;18.598;2024-02-23T12:51:27;2.37;;;0.70;;
70270;SDS011;57680;54.292;18.598;2024-02-23T12:53:52;2.33;;;1.00;;
70270;SDS011;57680;54.292;18.598;2024-02-23T12:56:17;2.80;;;0.90;;
70270;SDS011;57680;54.292;18.598;2024-02-23T12:58:43;2.57;;;1.00;;
70270;SDS011;57680;54.292;18.598;2024-02-23T13:01:09;3.20;;;1.10;;
70270;SDS011;57680;54.292;18.598;2024-02-23T13:03:35;3.37;;;1.00;;
70270;SDS011;57680;54.292;18.598;2024-02-23T13:06:02;3.60;;;0.93;;
70270;SDS011;57680;54.292;18.598;2024-02-23T13:08:28;3.75;;;0.90;;
70270;SDS011;57680;54.292;18.598;2024-02-23T13:10:54;3.03;;;0.60;;
70270;SDS011;57680;54.292;18.598;2024-02-23T13:13:20;3.53;;;0.80;;
70270;SDS011;57680;54.292;18.598;2024-02-23T13:15:46;3.30;;;0.70;;
70270;SDS011;57680;54.292;18.598;2024-02-23T13:18:12;3.50;;;0.87;;
70270;SDS011;57680;54.292;18.598;2024-02-23T13:20:38;2.05;;;0.90;;
70270;SDS011;57680;54.292;18.598;2024-02-23T13:23:04;2.57;;;0.70;;
70270;SDS011;57680;54.292;18.598;2024-02-23T13:25:30;2.15;;;0.63;;
70270;SDS011;57680;54.292;18.598;2024-02-23T13:27:57;3.17;;;0.80;;
70270;SDS011;57680;54.292;18.598;2024-02-23T13:30:22;2.20;;;0.63;;
70270;SDS011;57680;54.292;18.598;2024-02-23T13:32:48;1.90;;;0.60;;
70270;SDS011;57680;54.292;18.598;2024-02-23T13:35:14;1.92;;;0.60;;
70270;SDS011;57680;54.292;18.598;2024-02-23T13:37:40;1.80;;;0.70;;
70270;SDS011;57680;54.292;18.598;2024-02-23T13:40:07;1.85;;;0.60;;
70270;SDS011;57680;54.292;18.598;2024-02-23T13:42:33;1.63;;;0.60;;
70270;SDS011;57680;54.292;18.598;2024-02-23T13:44:59;2.73;;;0.70;;
70270;SDS011;57680;54.292;18.598;2024-02-23T13:47:24;2.30;;;0.80;;
70270;SDS011;57680;54.292;18.598;2024-02-23T13:49:50;1.92;;;0.70;;
70270;SDS011;57680;54.292;18.598;2024-02-23T13:52:15;1.90;;;0.60;;
70270;SDS011;57680;54.292;18.598;2024-02-23T13:54:40;2.60;;;1.00;;
70270;SDS011;57680;54.292;18.598;2024-02-23T13:57:06;2.93;;;0.80;;
70270;SDS011;57680;54.292;18.598;2024-02-23T13:59:31;2.43;;;0.70;;
70270;SDS011;57680;54.292;18.598;2024-02-23T14:01:56;2.50;;;0.87;;
70270;SDS011;57680;54.292;18.598;2024-02-23T14:04:22;1.38;;;0.60;;
70270;SDS011;57680;54.292;18.598;2024-02-23T14:06:47;1.80;;;0.70;;
70270;SDS011;57680;54.292;18.598;2024-02-23T14:09:12;3.33;;;0.50;;
70270;SDS011;57680;54.292;18.598;2024-02-23T14:11:38;2.03;;;0.70;;
70270;SDS011;57680;54.292;18.598;2024-02-23T14:14:03;2.17;;;0.80;;
70270;SDS011;57680;54.292;18.598;2024-02-23T14:16:29;2.17;;;0.60;;